Aérodrome :







RETROUVEZ-NOUS SUR...

 
LOGIN :

S'inscrire | Disclaimer

   EN    FR    IT 

 









Légende :    VFR   VFR Marginal   IFR   IFR Intensif   IFR Très Intensif
Visi : 
Plafond : 
>= 8 km
>= 3000ft
5 à 8 km
1000 à 3000 ft
1500m à 5 km
500 à 1000 ft
800 à 1500m
200 à 500 ft
< 800m
< 200 ft
Symboles :   Orages  Brouillard  Fortes neiges  Fortes précipitations  Vent > 20 kt






- Altitude de l'aérodrome : 1709 ft
- Code IATA : YKL


CYKL - Schefferville

DERNIER METAR :
  • 271019Z AUTO 23017G24KT 7SM -SN BKN017 OVC055 M03/M05 A2944 RMK SLP009

METARs EXPIRÉS :
  • 271008Z AUTO 22021G26KT 5SM -SN BKN017 OVC045 M03/M05 A2944 RMK SLP009
  • 270954Z AUTO 22018G24KT 9SM -SN BKN017 BKN045 OVC070 M03/M05 A2946 RMK SLP013
  • 270938Z AUTO 22018G24KT 6SM -SN FEW019 SCT045 BKN070 OVC120 M04/M05 A2946 RMK SLP013
  • 270930Z AUTO 22017G26KT 3SM -SN SCT038 BKN070 BKN120 M04/M06 A2946 RMK SLP013
  • 270904Z AUTO 22020G26KT 2 1/4SM -SN BKN050 OVC100 M04/M06 A2944 RMK VIS VRB 1 3/4-3 SLP012
  • 270857Z AUTO 21020G25KT 2 1/2SM -SN BKN050 BKN065 OVC100 M04/M06 A2946 RMK SLP013
  • 270837Z AUTO 20010G23KT 3SM -SN FEW015 BKN029 OVC095 M05/M06 A2947 RMK SLP017
  • 270820Z AUTO 18014KT 2 1/4SM -SN SCT015 OVC025 M05/M06 A2949 RMK SLP023
  • 270809Z AUTO 18015KT 2 1/4SM -SN BKN015 OVC028 M05/M06 A2949 RMK SLP024
  • 270742Z AUTO 16011G17KT 3SM -SN OVC026 M06/M07 A2950 RMK SLP030
  • 270741Z AUTO 16012G17KT 2 1/2SM -SN OVC026 M06/M07 A2950 RMK SLP030
  • 270655Z AUTO 17009KT 3SM -SN OVC026 M07/M08 A2952 RMK SLP041

TAF AMD TAF CYKL
Valide du 27 à 09h jusqu'au 27 à 20h UTC


270959Z 2709/2720 22018G28KT P6SM BKN030 OVC070
TEMPO 2709/2720 4SM -SHSN BKN020 RMK FCST BASED ON AUTO OBS. NXT FCST BY 271400Z
FIR CZUL / Amérique du Nord



MET'MAP, la Météo Aéronautique d'un coup d'oeil ! - Copyright ORBIFLY Décembre 2007 - Disclaimer

ORBIFLY MET'MAP TEAM :

Programmation & Développement : Alexandra Zaïnal
Sur une idée originale de : Baudouin d'Aumeries
Assistance à la programmation : Marc-Olivier Méhu
Soutien technique & logistique : Manuel Goepfert

Contact : metmap@orbifly.com




SOURCES & CREDITS :

   NOAA